Time;durP1;ratioP1;P1;durP2;ratioP2;P2;SDS_P1;SDS_P2;PMS_P1;PMS_P2;Temp;Humidity;BMP_temperature;BMP_pressure;BME280_temperature;BME280_humidity;BME280_pressure;Samples;Min_cycle;Max_cycle;Signal;HPM_P1;HPM_P2
2021/12/22 00:00:41;;;;;;;6.95;5.20;;;;;;;5.89;44.57;99926.30;1821550;77;21104;-58
2021/12/22 00:03:09;;;;;;;8.48;5.58;;;;;;;5.88;44.55;99928.59;1794334;78;21054;-59
2021/12/22 00:05:43;;;;;;;7.62;5.10;;;;;;;5.88;44.57;99927.28;1784862;78;21010;-58
2021/12/22 00:08:04;;;;;;;6.70;5.00;;;;;;;5.87;44.55;99934.36;1809035;77;21030;-57
2021/12/22 00:10:31;;;;;;;6.42;4.70;;;;;;;5.87;44.57;99944.05;1818581;77;21459;-58
2021/12/22 00:12:58;;;;;;;6.80;5.30;;;;;;;5.86;44.56;99945.03;1810423;79;21081;-58
2021/12/22 00:15:24;;;;;;;7.45;5.42;;;;;;;5.85;44.54;99939.40;1741908;82;21151;-59
2021/12/22 00:17:51;;;;;;;7.55;5.33;;;;;;;5.86;44.55;99935.80;1744967;80;21058;-58
2021/12/22 00:20:18;;;;;;;6.58;5.05;;;;;;;5.85;44.53;99940.25;1783285;79;21046;-59
2021/12/22 00:22:44;;;;;;;7.87;5.60;;;;;;;5.85;44.50;99942.03;1791499;78;21068;-58
2021/12/22 00:25:10;;;;;;;8.18;5.60;;;;;;;5.84;44.52;99940.37;1814672;77;21534;-57
2021/12/22 00:27:37;;;;;;;7.20;5.17;;;;;;;5.83;44.49;99941.33;1829143;77;21329;-59
2021/12/22 00:30:06;;;;;;;7.47;4.95;;;;;;;5.83;44.49;99942.65;1736325;82;21624;-58
2021/12/22 00:32:34;;;;;;;7.25;5.42;;;;;;;5.81;44.50;99941.45;1742483;82;21046;-57
2021/12/22 00:35:00;;;;;;;6.30;4.92;;;;;;;5.80;44.50;99945.08;1743946;80;22233;-58
2021/12/22 00:37:31;;;;;;;6.42;4.90;;;;;;;5.78;44.51;99939.59;1743144;80;21054;-57
2021/12/22 00:39:58;;;;;;;7.10;5.55;;;;;;;5.78;44.50;99947.02;1748755;80;21821;-58
2021/12/22 00:42:24;;;;;;;7.45;5.40;;;;;;;5.74;44.51;99940.34;1798269;79;21085;-57
2021/12/22 00:44:54;;;;;;;7.55;5.10;;;;;;;5.77;44.51;99944.50;1788378;79;21042;-57
2021/12/22 00:47:24;;;;;;;6.05;5.10;;;;;;;5.77;44.50;99952.41;1793532;79;21073;-57
2021/12/22 00:49:51;;;;;;;6.80;4.72;;;;;;;5.77;44.49;99952.41;1800027;79;21015;-59
2021/12/22 00:52:17;;;;;;;7.55;5.40;;;;;;;5.76;44.49;99962.13;1805967;78;21209;-57
2021/12/22 00:54:44;;;;;;;8.08;5.55;;;;;;;5.76;44.46;99963.45;1781708;78;21025;-57
2021/12/22 00:57:11;;;;;;;8.90;5.78;;;;;;;5.75;44.44;99959.62;1794400;77;21076;-58
2021/12/22 00:59:37;;;;;;;6.67;5.05;;;;;;;5.75;44.44;99960.94;1790783;79;21017;-58
2021/12/22 01:02:07;;;;;;;7.90;5.17;;;;;;;5.74;44.43;99964.53;1787552;78;21559;-58
2021/12/22 01:04:34;;;;;;;6.95;5.42;;;;;;;5.73;44.44;99965.51;1800470;78;21149;-58
2021/12/22 01:07:01;;;;;;;7.47;5.58;;;;;;;5.70;44.46;99963.48;1803226;78;21061;-59
2021/12/22 01:09:27;;;;;;;7.50;5.67;;;;;;;5.70;44.46;99965.30;1803176;78;21021;-58
2021/12/22 01:11:53;;;;;;;7.53;5.15;;;;;;;5.69;44.44;99963.61;1808242;78;21065;-57
2021/12/22 01:14:21;;;;;;;7.75;4.97;;;;;;;5.68;44.43;99967.23;1795884;78;21045;-57
2021/12/22 01:16:51;;;;;;;7.33;5.70;;;;;;;5.67;44.43;99962.91;1804731;78;21061;-58
2021/12/22 01:19:26;;;;;;;6.65;5.37;;;;;;;5.67;44.44;99968.19;1818688;78;20995;-57
2021/12/22 01:21:54;;;;;;;5.90;4.97;;;;;;;5.65;44.45;99965.67;1795486;78;21021;-58
2021/12/22 01:24:33;;;;;;;6.70;4.97;;;;;;;5.66;44.41;99968.67;1798332;78;21072;-58
2021/12/22 01:27:05;;;;;;;7.55;5.00;;;;;;;5.66;44.41;99976.58;1800487;78;21029;-59
2021/12/22 01:29:27;;;;;;;7.17;5.22;;;;;;;5.64;44.40;99977.20;1793833;78;21145;-59
2021/12/22 01:31:57;;;;;;;6.50;4.75;;;;;;;5.64;44.40;99981.16;1797495;78;21280;-58
2021/12/22 01:34:25;;;;;;;6.60;4.80;;;;;;;5.63;44.40;99984.73;1792437;78;21019;-58
2021/12/22 01:36:51;;;;;;;6.87;4.95;;;;;;;5.61;44.40;99979.25;1813595;77;21033;-57
2021/12/22 01:39:18;;;;;;;5.97;5.03;;;;;;;5.62;44.39;99983.55;1798604;78;21017;-57
2021/12/22 01:41:44;;;;;;;7.30;5.22;;;;;;;5.61;44.40;99990.62;1808486;78;21066;-60
2021/12/22 01:44:13;;;;;;;7.55;5.22;;;;;;;5.60;44.38;99987.66;1809780;78;21443;-57
2021/12/22 01:49:10;;;;;;;5.80;4.47;;;;;;;5.59;44.35;99989.92;1726023;82;21042;-57
2021/12/22 01:51:54;;;;;;;7.08;4.92;;;;;;;5.59;44.38;99993.05;1796067;78;21466;-57
2021/12/22 01:54:41;;;;;;;6.85;4.53;;;;;;;5.58;44.36;99997.95;1792462;78;21131;-58
2021/12/22 01:57:10;;;;;;;6.97;5.33;;;;;;;5.57;44.37;100002.39;1773765;78;21607;-59
2021/12/22 01:59:39;;;;;;;8.33;5.33;;;;;;;5.54;44.36;100000.00;1804033;78;21006;-58
2021/12/22 02:02:09;;;;;;;6.15;5.00;;;;;;;5.54;44.38;99995.23;1792190;78;21025;-57
2021/12/22 02:04:38;;;;;;;6.97;4.97;;;;;;;5.53;44.38;100003.63;1816289;78;21029;-57
2021/12/22 02:07:06;;;;;;;6.72;5.90;;;;;;;5.53;44.37;100004.94;1805118;79;21151;-58
2021/12/22 02:09:53;;;;;;;7.83;5.70;;;;;;;5.51;44.36;100006.38;1795627;79;21006;-58
2021/12/22 02:12:01;;;;;;;6.97;5.12;;;;;;;5.51;44.35;100011.65;1774529;79;21493;-58
2021/12/22 02:14:28;;;;;;;6.40;4.70;;;;;;;5.50;44.36;100006.05;1786714;79;21524;-57
2021/12/22 02:16:54;;;;;;;7.33;5.30;;;;;;;5.50;44.34;100003.87;1804494;78;21609;-59
2021/12/22 02:19:21;;;;;;;8.05;5.53;;;;;;;5.51;44.34;100005.55;1744691;80;21016;-58
2021/12/22 02:21:52;;;;;;;6.30;4.90;;;;;;;5.51;44.31;100005.55;1755687;80;21089;-58
2021/12/22 02:24:16;;;;;;;7.00;5.12;;;;;;;5.51;44.29;100010.83;1741926;81;21078;-57
2021/12/22 02:26:50;;;;;;;7.37;5.17;;;;;;;5.50;44.28;100011.77;1761793;80;21002;-57
2021/12/22 02:29:33;;;;;;;6.42;4.92;;;;;;;5.50;44.29;100005.19;1745741;80;21038;-59
2021/12/22 02:32:02;;;;;;;6.95;4.80;;;;;;;5.50;44.26;100010.45;1784451;79;21100;-57
2021/12/22 02:34:21;;;;;;;6.83;5.33;;;;;;;5.48;44.25;100014.53;1759490;80;21062;-58
2021/12/22 02:36:47;;;;;;;6.50;5.28;;;;;;;5.46;44.27;100012.51;1747618;80;21021;-57
2021/12/22 02:39:13;;;;;;;7.30;5.30;;;;;;;5.46;44.25;100011.68;1752031;80;22179;-58
2021/12/22 02:41:40;;;;;;;6.92;4.97;;;;;;;5.45;44.27;100006.91;1756495;80;21023;-56
2021/12/22 02:44:11;;;;;;;6.05;4.67;;;;;;;5.44;44.26;100013.13;1726833;82;21149;-57
2021/12/22 02:46:38;;;;;;;7.90;5.00;;;;;;;5.44;44.27;100018.39;1741615;82;21031;-58
2021/12/22 02:49:07;;;;;;;6.55;5.58;;;;;;;5.43;44.26;100014.10;1776406;80;21042;-58
2021/12/22 02:51:35;;;;;;;7.20;5.08;;;;;;;5.43;44.25;100016.73;1766770;80;21027;-59
2021/12/22 02:54:07;;;;;;;6.65;4.78;;;;;;;5.43;44.26;100017.23;1754409;80;21663;-57
2021/12/22 02:59:37;;;;;;;7.45;5.12;;;;;;;5.42;44.22;100016.37;1751247;81;21018;-60
2021/12/22 03:04:22;;;;;;;6.42;5.22;;;;;;;5.40;44.21;100022.73;1733673;81;21093;-58
2021/12/22 03:06:55;;;;;;;7.17;5.28;;;;;;;5.40;44.21;100025.38;1753919;81;21002;-58
2021/12/22 03:09:29;;;;;;;6.50;5.33;;;;;;;5.38;44.19;100033.89;1738128;81;21073;-58
2021/12/22 03:11:59;;;;;;;7.30;5.53;;;;;;;5.40;44.21;100034.59;1805392;78;21545;-57
2021/12/22 03:14:27;;;;;;;7.47;5.45;;;;;;;5.38;44.18;100035.20;1817039;78;21065;-57
2021/12/22 03:16:55;;;;;;;7.35;5.83;;;;;;;5.36;44.19;100034.01;1805513;78;21049;-58
2021/12/22 03:19:25;;;;;;;8.65;5.28;;;;;;;5.35;44.20;100042.89;1803434;78;21586;-58
2021/12/22 03:21:59;;;;;;;7.55;5.53;;;;;;;5.35;44.18;100045.53;1804837;78;21552;-57
2021/12/22 03:24:23;;;;;;;7.58;5.45;;;;;;;5.35;44.19;100045.98;1816221;78;21545;-57
2021/12/22 03:26:50;;;;;;;7.17;5.75;;;;;;;5.34;44.17;100043.02;1755425;81;21025;-59
2021/12/22 03:29:17;;;;;;;6.53;4.95;;;;;;;5.34;44.17;100044.33;1783492;79;21030;-58
2021/12/22 03:31:45;;;;;;;7.40;4.87;;;;;;;5.32;44.15;100042.64;1815656;78;21021;-57
2021/12/22 03:34:14;;;;;;;6.55;5.35;;;;;;;5.32;44.14;100046.59;1801832;78;21052;-57
2021/12/22 03:36:42;;;;;;;7.80;5.15;;;;;;;5.31;44.13;100048.89;1821510;78;20963;-58
2021/12/22 03:39:10;;;;;;;8.75;5.92;;;;;;;5.30;44.13;100047.20;1798205;78;21473;-57
2021/12/22 03:41:39;;;;;;;7.12;5.35;;;;;;;5.29;44.10;100047.33;1812404;77;21041;-58
2021/12/22 03:44:06;;;;;;;7.37;4.83;;;;;;;5.27;44.12;100054.06;1818492;78;21044;-60
2021/12/22 03:46:33;;;;;;;7.60;5.53;;;;;;;5.26;44.13;100060.28;1816212;78;21781;-58
2021/12/22 03:49:00;;;;;;;7.55;5.12;;;;;;;5.25;44.11;100065.21;1803452;78;21067;-59
2021/12/22 03:51:26;;;;;;;7.53;5.58;;;;;;;5.24;44.12;100058.25;1804069;78;20986;-57
2021/12/22 03:53:54;;;;;;;8.53;5.10;;;;;;;5.24;44.15;100063.52;1821567;78;21010;-58
2021/12/22 03:56:21;;;;;;;6.40;4.97;;;;;;;5.23;44.11;100066.28;1798360;78;20995;-58
2021/12/22 03:58:47;;;;;;;6.37;4.67;;;;;;;5.23;44.10;100069.73;1801748;77;21860;-58
2021/12/22 04:01:14;;;;;;;8.08;5.40;;;;;;;5.23;44.09;100074.18;1818010;78;21608;-58
2021/12/22 04:03:45;;;;;;;7.53;5.30;;;;;;;5.24;44.08;100077.19;1818449;78;20990;-57
2021/12/22 04:06:11;;;;;;;7.60;4.75;;;;;;;5.23;44.05;100076.33;1805150;78;21502;-57
2021/12/22 04:08:37;;;;;;;7.20;4.62;;;;;;;5.24;44.05;100074.55;1811992;78;21303;-57
2021/12/22 04:11:04;;;;;;;5.80;4.33;;;;;;;5.24;44.03;100081.96;1717392;82;21186;-57
2021/12/22 04:13:31;;;;;;;6.30;4.90;;;;;;;5.23;44.01;100080.27;1796224;78;20978;-57
2021/12/22 04:15:59;;;;;;;7.20;4.90;;;;;;;5.21;44.02;100078.25;1801842;78;21006;-57
2021/12/22 04:18:25;;;;;;;6.45;5.15;;;;;;;5.20;44.02;100085.81;1797456;77;21033;-58
2021/12/22 04:20:51;;;;;;;6.92;4.60;;;;;;;5.19;44.02;100083.30;1808344;78;21568;-57
2021/12/22 04:23:18;;;;;;;6.47;4.95;;;;;;;5.19;44.03;100084.13;1808174;78;21769;-58
2021/12/22 04:25:46;;;;;;;6.25;5.03;;;;;;;5.19;44.04;100090.71;1797260;78;21053;-57
2021/12/22 04:28:12;;;;;;;7.22;5.20;;;;;;;5.19;44.01;100082.81;1802801;78;21600;-58
2021/12/22 04:30:42;;;;;;;6.10;4.67;;;;;;;5.19;44.01;100087.25;1794213;78;20974;-57
2021/12/22 04:33:08;;;;;;;5.87;4.83;;;;;;;5.19;44.00;100093.83;1817423;78;21041;-57
2021/12/22 04:35:35;;;;;;;6.47;4.95;;;;;;;5.19;43.99;100087.25;1803102;78;21139;-58
2021/12/22 04:38:01;;;;;;;5.87;4.60;;;;;;;5.19;43.97;100087.25;1817251;77;21616;-57
2021/12/22 04:40:29;;;;;;;6.50;4.53;;;;;;;5.19;43.96;100093.83;1802501;78;20977;-57
2021/12/22 04:42:56;;;;;;;7.30;4.47;;;;;;;5.20;43.97;100095.52;1800580;78;21335;-58
2021/12/22 04:45:22;;;;;;;7.30;5.15;;;;;;;5.18;43.92;100096.95;1811196;78;20978;-58
2021/12/22 04:47:51;;;;;;;6.12;4.62;;;;;;;5.19;43.93;100099.93;1749941;81;22424;-58
2021/12/22 04:50:21;;;;;;;5.97;4.60;;;;;;;5.19;43.92;100103.88;1811986;77;21104;-58
2021/12/22 04:52:57;;;;;;;6.20;5.25;;;;;;;5.19;43.91;100108.32;1800309;78;21104;-58
2021/12/22 04:55:22;;;;;;;7.20;5.10;;;;;;;5.20;43.89;100114.78;1801210;78;21041;-59
2021/12/22 04:57:49;;;;;;;5.25;4.33;;;;;;;5.19;43.88;100119.69;1810232;78;21025;-58
2021/12/22 05:00:16;;;;;;;7.33;5.15;;;;;;;5.19;43.87;100115.73;1803986;78;21085;-58
2021/12/22 05:02:43;;;;;;;6.20;4.50;;;;;;;5.16;43.85;100122.58;1749681;81;21007;-57
2021/12/22 05:05:10;;;;;;;5.60;4.62;;;;;;;5.18;43.83;100121.98;1768605;80;22136;-58
2021/12/22 05:07:36;;;;;;;6.12;4.53;;;;;;;5.17;43.83;100119.46;1753170;81;21019;-58
2021/12/22 05:10:05;;;;;;;7.55;5.25;;;;;;;5.17;43.79;100130.83;1828776;77;21486;-58
2021/12/22 05:12:33;;;;;;;6.00;4.45;;;;;;;5.17;43.79;100121.61;1819521;78;20974;-59
2021/12/22 05:15:00;;;;;;;6.67;5.22;;;;;;;5.18;43.81;100126.42;1816640;78;21564;-59
2021/12/22 05:19:55;;;;;;;5.65;4.05;;;;;;;5.15;43.77;100130.60;1729032;80;22001;-59
2021/12/22 05:22:22;;;;;;;6.15;5.08;;;;;;;5.14;43.77;100129.77;1751469;82;21045;-59
2021/12/22 05:24:49;;;;;;;6.28;4.83;;;;;;;5.15;43.76;100135.87;1752545;81;21488;-58
2021/12/22 05:27:15;;;;;;;6.42;4.72;;;;;;;5.13;43.76;100137.30;1768879;80;21041;-59
2021/12/22 05:29:42;;;;;;;5.85;4.20;;;;;;;5.13;43.72;100145.20;1768969;79;21057;-59
2021/12/22 05:32:08;;;;;;;6.45;4.40;;;;;;;5.12;43.74;100143.55;1813243;78;21518;-60
2021/12/22 05:34:35;;;;;;;7.60;5.03;;;;;;;5.12;43.72;100144.38;1796448;78;21072;-58
2021/12/22 05:37:03;;;;;;;5.90;4.25;;;;;;;5.12;43.72;100148.33;1789374;78;21146;-57
2021/12/22 05:39:30;;;;;;;6.20;4.22;;;;;;;5.11;43.69;100148.45;1803606;78;21057;-57
2021/12/22 05:41:57;;;;;;;6.42;4.28;;;;;;;5.12;43.69;100146.19;1803205;77;21005;-58
2021/12/22 05:44:24;;;;;;;7.10;4.80;;;;;;;5.10;43.68;100150.25;1809054;77;21713;-59
2021/12/22 05:46:51;;;;;;;5.50;3.87;;;;;;;5.09;43.68;100154.31;1812523;78;20994;-60
2021/12/22 05:49:18;;;;;;;4.83;3.98;;;;;;;5.08;43.72;100155.26;1815230;77;21073;-58
2021/12/22 05:51:45;;;;;;;5.72;4.53;;;;;;;5.08;43.66;100154.80;1793889;78;21084;-57
2021/12/22 05:54:11;;;;;;;4.95;3.85;;;;;;;5.08;43.66;100157.89;1789668;77;21035;-58
2021/12/22 05:56:38;;;;;;;5.33;4.37;;;;;;;5.09;43.65;100167.48;1807401;78;21038;-59
2021/12/22 05:59:05;;;;;;;5.12;4.03;;;;;;;5.08;43.64;100166.66;1746101;80;21100;-58
2021/12/22 06:01:32;;;;;;;5.00;3.72;;;;;;;5.07;43.61;100168.92;1815369;78;21494;-59
2021/12/22 06:04:03;;;;;;;5.00;4.00;;;;;;;5.07;43.63;100174.19;1752306;81;21037;-57
2021/12/22 06:06:26;;;;;;;4.87;3.90;;;;;;;5.06;43.60;100172.98;1808295;78;21482;-59
2021/12/22 06:08:53;;;;;;;5.72;4.03;;;;;;;5.05;43.61;100174.78;1743005;80;21059;-59
2021/12/22 06:11:20;;;;;;;5.53;4.17;;;;;;;5.05;43.61;100188.44;1758420;80;21510;-59
2021/12/22 06:13:48;;;;;;;5.53;4.40;;;;;;;5.04;43.62;100188.06;1757900;81;21152;-59
2021/12/22 06:16:14;;;;;;;5.47;4.12;;;;;;;5.04;43.60;100193.34;1743870;81;21118;-58
2021/12/22 06:18:45;;;;;;;5.00;3.92;;;;;;;5.03;43.61;100203.53;1770626;80;22248;-57
2021/12/22 06:21:13;;;;;;;4.67;3.72;;;;;;;5.03;43.60;100204.84;1772083;80;21034;-59
2021/12/22 06:23:39;;;;;;;6.10;4.40;;;;;;;5.01;43.62;100210.22;1773937;80;21045;-58
2021/12/22 06:26:06;;;;;;;6.17;4.30;;;;;;;5.01;43.63;100220.76;1750421;80;21123;-59
2021/12/22 06:28:33;;;;;;;4.78;3.72;;;;;;;5.02;43.61;100218.95;1787471;79;21510;-59
2021/12/22 06:30:59;;;;;;;7.10;5.37;;;;;;;5.02;43.61;100220.27;1750725;80;21046;-59
2021/12/22 06:33:26;;;;;;;6.37;4.58;;;;;;;5.00;43.57;100221.70;1741606;81;21046;-59
2021/12/22 06:35:52;;;;;;;6.20;4.15;;;;;;;5.01;43.57;100229.98;1762092;80;21065;-60
2021/12/22 06:38:18;;;;;;;5.10;4.15;;;;;;;5.03;43.58;100236.45;1769126;79;21080;-58
2021/12/22 06:40:45;;;;;;;4.85;4.15;;;;;;;5.03;43.56;100232.01;1771921;80;21048;-59
2021/12/22 06:43:11;;;;;;;5.55;4.20;;;;;;;5.04;43.53;100240.28;1773318;80;21077;-60
2021/12/22 06:45:37;;;;;;;4.78;3.70;;;;;;;5.05;43.53;100239.80;1799367;77;21035;-58
2021/12/22 06:48:04;;;;;;;6.03;4.80;;;;;;;4.93;43.50;100221.36;1805443;79;21142;-59
2021/12/22 06:50:31;;;;;;;5.53;4.17;;;;;;;5.07;43.47;100244.46;1809559;77;21144;-60
2021/12/22 06:52:57;;;;;;;5.80;4.33;;;;;;;5.09;43.46;100254.39;1792349;77;21255;-58
2021/12/22 06:55:25;;;;;;;4.62;3.95;;;;;;;5.09;43.44;100253.91;1808866;78;21088;-59
2021/12/22 06:57:52;;;;;;;5.75;4.53;;;;;;;5.10;43.43;100256.08;1787398;79;21527;-58
2021/12/22 07:00:18;;;;;;;4.60;3.50;;;;;;;5.10;43.42;100259.55;1794266;78;21565;-58
2021/12/22 07:02:44;;;;;;;5.15;3.70;;;;;;;5.10;43.43;100260.03;1819803;77;21132;-58
2021/12/22 07:05:18;;;;;;;5.12;4.17;;;;;;;5.10;43.41;100255.59;1801605;78;21117;-59
2021/12/22 07:07:44;;;;;;;5.62;4.28;;;;;;;5.09;43.41;100260.48;1778073;78;21056;-59
2021/12/22 07:10:11;;;;;;;4.33;3.85;;;;;;;5.09;43.43;100266.24;1788073;77;21766;-58
2021/12/22 07:12:46;;;;;;;4.20;3.45;;;;;;;5.09;43.43;100263.13;1810337;77;21032;-58
2021/12/22 07:15:14;;;;;;;5.37;3.95;;;;;;;5.09;43.43;100258.34;1821708;77;21780;-58
2021/12/22 07:17:42;;;;;;;4.58;3.65;;;;;;;5.10;43.45;100257.40;1799988;77;20993;-59
2021/12/22 07:21:07;;;;;;;5.20;4.10;;;;;;;5.15;43.46;100255.22;1795313;78;25586;-58
2021/12/22 07:23:33;;;;;;;4.97;4.00;;;;;;;5.12;43.45;100260.75;1764616;80;20974;-58
2021/12/22 07:26:01;;;;;;;4.80;3.75;;;;;;;5.12;43.45;100259.44;1762714;80;20956;-58
2021/12/22 07:28:28;;;;;;;5.12;4.12;;;;;;;5.13;43.46;100262.41;1782538;80;20984;-60
2021/12/22 07:30:54;;;;;;;4.20;3.60;;;;;;;5.14;43.47;100261.47;1759973;79;21521;-61
2021/12/22 07:33:21;;;;;;;5.30;4.08;;;;;;;5.13;43.47;100265.05;1764877;80;21012;-59
2021/12/22 07:36:00;;;;;;;5.20;3.90;;;;;;;5.15;43.46;100263.13;1779596;79;21099;-59
2021/12/22 07:38:43;;;;;;;5.83;3.47;;;;;;;5.15;43.48;100274.14;1783472;80;21097;-59
2021/12/22 07:41:10;;;;;;;4.47;3.80;;;;;;;5.16;43.50;100272.72;1765309;80;21019;-59
2021/12/22 07:43:36;;;;;;;5.30;3.20;;;;;;;5.17;43.48;100274.86;1743468;81;21481;-60
2021/12/22 07:46:03;;;;;;;4.85;4.00;;;;;;;5.17;43.48;100273.55;1755419;80;21112;-61
2021/12/22 07:48:30;;;;;;;5.05;3.85;;;;;;;5.18;43.47;100281.33;1781294;79;21598;-59
2021/12/22 07:50:57;;;;;;;4.30;3.33;;;;;;;5.19;43.48;100282.99;1781972;78;21046;-60
2021/12/22 07:53:24;;;;;;;3.83;3.33;;;;;;;5.21;43.47;100282.88;1729765;80;21084;-60
2021/12/22 07:55:53;;;;;;;5.17;3.87;;;;;;;5.23;43.48;100279.16;1744128;80;21009;-60
2021/12/22 07:58:22;;;;;;;4.90;3.70;;;;;;;5.24;43.47;100283.48;1755685;80;21561;-60
2021/12/22 08:00:49;;;;;;;5.78;3.70;;;;;;;5.26;43.47;100276.78;1779798;79;21100;-60
2021/12/22 08:03:17;;;;;;;4.97;3.90;;;;;;;5.28;43.78;100288.86;1766310;80;21053;-60
2021/12/22 08:05:44;;;;;;;5.15;4.10;;;;;;;5.30;43.90;100276.41;1749078;81;21510;-60
2021/12/22 08:08:11;;;;;;;5.10;3.70;;;;;;;5.31;43.95;100277.23;1749079;81;21077;-59
2021/12/22 08:10:38;;;;;;;5.12;3.90;;;;;;;5.34;43.94;100280.95;1748113;80;21089;-58
2021/12/22 08:13:05;;;;;;;4.87;3.55;;;;;;;5.36;43.92;100273.77;1741430;81;21073;-59
2021/12/22 08:15:32;;;;;;;6.08;3.90;;;;;;;5.38;43.87;100274.97;1750369;81;21112;-61
2021/12/22 08:17:58;;;;;;;5.95;4.12;;;;;;;5.40;43.85;100274.37;1727619;81;21053;-59
2021/12/22 08:20:25;;;;;;;4.67;3.77;;;;;;;5.42;43.81;100274.59;1728671;81;21937;-60
2021/12/22 08:22:51;;;;;;;8.93;4.72;;;;;;;5.45;43.77;100271.73;1727505;81;21064;-60
2021/12/22 08:25:18;;;;;;;5.70;4.30;;;;;;;5.55;58.83;100256.51;1725179;81;21185;-60
2021/12/22 08:27:44;;;;;;;7.83;4.05;;;;;;;5.98;67.27;100271.02;1727261;81;21484;-59
2021/12/22 08:30:11;;;;;;;7.67;4.70;;;;;;;6.27;64.17;100273.05;1724935;81;21093;-60
2021/12/22 08:32:38;;;;;;;5.42;4.00;;;;;;;6.40;62.19;100269.75;1728946;82;21093;-59
2021/12/22 08:35:07;;;;;;;10.13;4.20;;;;;;;6.50;61.43;100269.82;1728345;82;21662;-56
2021/12/22 08:40:21;;;;;;;5.37;4.22;;;;;;;6.65;60.85;100269.02;1728404;82;21264;-59
2021/12/22 08:42:47;;;;;;;6.33;4.53;;;;;;;6.72;60.71;100270.64;1722753;82;21533;-58
2021/12/22 08:45:14;;;;;;;5.20;3.72;;;;;;;6.78;60.57;100280.22;1730118;82;21565;-60
2021/12/22 08:47:41;;;;;;;7.12;3.98;;;;;;;6.83;60.29;100274.04;1739751;82;21069;-58
2021/12/22 08:50:09;;;;;;;12.58;5.35;;;;;;;6.88;60.02;100271.85;1723223;82;21492;-58
2021/12/22 08:52:37;;;;;;;4.30;3.90;;;;;;;6.94;59.75;100267.02;1729772;82;21502;-58
2021/12/22 08:55:06;;;;;;;6.00;3.75;;;;;;;6.98;59.35;100265.78;1727327;82;21084;-59
2021/12/22 08:57:34;;;;;;;5.45;3.87;;;;;;;7.01;58.85;100269.00;1748901;82;21065;-59
2021/12/22 09:00:04;;;;;;;4.45;3.67;;;;;;;6.89;58.40;100242.31;1736226;82;21057;-58
2021/12/22 09:02:31;;;;;;;5.92;3.65;;;;;;;7.10;57.90;100272.64;1728157;82;21549;-59
2021/12/22 09:04:58;;;;;;;5.30;3.98;;;;;;;7.14;57.34;100264.80;1736510;82;21172;-57
2021/12/22 09:07:24;;;;;;;8.20;4.05;;;;;;;7.19;56.79;100267.06;1767513;80;20984;-57
2021/12/22 09:09:51;;;;;;;6.67;4.08;;;;;;;7.24;56.26;100269.66;1748188;81;21706;-57
2021/12/22 09:12:18;;;;;;;4.55;3.42;;;;;;;7.26;55.75;100266.39;1729199;81;21330;-59
2021/12/22 09:14:44;;;;;;;5.08;3.50;;;;;;;7.35;55.31;100273.98;1742936;81;21088;-59
2021/12/22 09:17:11;;;;;;;4.53;3.80;;;;;;;7.40;54.84;100272.28;1742744;81;21801;-58
2021/12/22 09:19:37;;;;;;;4.60;3.47;;;;;;;7.44;54.43;100271.87;1735185;80;21530;-58
2021/12/22 09:22:04;;;;;;;5.65;3.72;;;;;;;7.46;54.01;100266.45;1743846;81;21098;-59
2021/12/22 09:24:32;;;;;;;4.35;3.52;;;;;;;7.51;53.64;100283.22;1724151;81;21070;-57
2021/12/22 09:26:58;;;;;;;5.72;4.12;;;;;;;7.52;53.23;100280.44;1748144;81;21562;-57
2021/12/22 09:29:26;;;;;;;5.42;3.55;;;;;;;7.54;52.88;100276.35;1735562;82;21114;-58
2021/12/22 09:31:53;;;;;;;4.35;3.65;;;;;;;7.54;52.53;100272.38;1718084;82;21036;-58
2021/12/22 09:34:19;;;;;;;4.83;3.70;;;;;;;7.55;52.22;100274.04;1730002;82;21074;-59
2021/12/22 09:36:46;;;;;;;4.85;3.50;;;;;;;7.54;51.89;100271.06;1736860;81;21066;-59
2021/12/22 09:39:13;;;;;;;5.08;3.87;;;;;;;7.54;51.56;100275.86;1725508;82;21083;-60
2021/12/22 09:41:39;;;;;;;5.22;3.40;;;;;;;7.53;51.27;100264.09;1751667;81;21106;-60
2021/12/22 09:44:06;;;;;;;5.67;4.00;;;;;;;7.54;50.99;100256.03;1753156;79;21039;-60
2021/12/22 09:46:34;;;;;;;4.67;3.35;;;;;;;7.54;50.69;100255.20;1760047;81;21086;-59
2021/12/22 09:49:18;;;;;;;6.03;3.60;;;;;;;7.55;50.44;100255.06;1735771;81;21498;-61
2021/12/22 09:53:58;;;;;;;4.47;3.70;;;;;;;7.59;49.91;100251.17;1746999;81;21057;-60
2021/12/22 09:56:27;;;;;;;4.87;3.52;;;;;;;7.60;49.68;100252.83;1721371;82;21067;-59
2021/12/22 09:58:54;;;;;;;5.12;3.65;;;;;;;7.62;49.44;100246.92;1716945;82;21043;-60
2021/12/22 10:01:23;;;;;;;6.72;4.05;;;;;;;7.63;49.20;100239.34;1726185;82;21008;-59
2021/12/22 10:03:51;;;;;;;4.67;3.30;;;;;;;7.64;48.99;100242.33;1736825;82;21039;-60
2021/12/22 10:06:17;;;;;;;4.75;3.30;;;;;;;7.67;48.80;100246.53;1730542;82;21149;-59
2021/12/22 10:08:57;;;;;;;4.72;3.85;;;;;;;7.68;48.60;100246.86;1740350;81;21025;-61
2021/12/22 10:11:25;;;;;;;4.12;3.27;;;;;;;7.68;48.40;100247.69;1739849;82;21031;-60
2021/12/22 10:13:53;;;;;;;4.53;3.52;;;;;;;7.72;48.21;100243.46;1735963;81;22090;-59
2021/12/22 10:16:23;;;;;;;4.55;3.72;;;;;;;7.73;48.04;100242.00;1733591;82;21501;-60
2021/12/22 10:19:08;;;;;;;4.03;3.20;;;;;;;7.76;47.91;100243.03;1738867;81;21158;-61
2021/12/22 10:21:37;;;;;;;3.95;3.17;;;;;;;7.79;47.76;100232.69;1738606;81;21009;-61
2021/12/22 10:24:06;;;;;;;5.00;3.70;;;;;;;7.83;47.61;100238.05;1734807;81;21144;-59
2021/12/22 10:26:33;;;;;;;4.05;3.45;;;;;;;7.86;47.48;100239.08;1743149;81;21030;-59
2021/12/22 10:29:05;;;;;;;3.92;3.17;;;;;;;7.87;47.37;100231.01;1741690;81;21099;-60
2021/12/22 10:31:43;;;;;;;4.87;3.83;;;;;;;7.91;47.23;100239.50;1751084;81;21112;-61
2021/12/22 10:34:13;;;;;;;5.58;3.85;;;;;;;7.95;47.07;100235.60;1743502;81;21109;-61
2021/12/22 10:36:51;;;;;;;4.90;3.83;;;;;;;7.99;46.94;100235.67;1732146;81;21037;-62
2021/12/22 10:39:28;;;;;;;5.40;3.75;;;;;;;8.05;46.84;100232.95;1741375;81;21505;-60
2021/12/22 10:42:09;;;;;;;4.75;3.65;;;;;;;8.10;46.75;100230.73;1730883;81;22205;-61
2021/12/22 10:44:41;;;;;;;4.37;3.65;;;;;;;8.17;46.59;100229.20;1731439;81;21081;-61
2021/12/22 10:47:32;;;;;;;4.42;3.42;;;;;;;8.24;46.43;100231.62;1731431;81;21572;-61
2021/12/22 10:50:07;;;;;;;4.67;3.77;;;;;;;8.33;46.31;100235.73;1754657;81;21661;-61
2021/12/22 10:52:35;;;;;;;3.75;3.27;;;;;;;8.44;46.19;100238.23;1731749;81;21061;-60
2021/12/22 10:55:13;;;;;;;3.80;3.17;;;;;;;8.56;46.09;100242.91;1747519;80;21182;-61
2021/12/22 10:57:43;;;;;;;4.12;3.10;;;;;;;8.66;45.95;100247.69;1736595;81;21968;-60
2021/12/22 11:00:21;;;;;;;4.25;3.15;;;;;;;8.74;45.79;100253.09;1749717;80;22083;-61
2021/12/22 11:03:09;;;;;;;3.62;3.10;;;;;;;8.81;45.63;100252.05;1749521;81;21068;-62
2021/12/22 11:05:47;;;;;;;6.70;3.70;;;;;;;8.85;45.52;100252.10;1752136;81;21060;-60
2021/12/22 11:08:25;;;;;;;4.20;3.05;;;;;;;8.87;45.40;100251.47;1746872;81;21018;-60
2021/12/22 11:10:52;;;;;;;4.60;3.55;;;;;;;8.89;45.32;100243.38;1740163;81;21137;-61
2021/12/22 11:13:21;;;;;;;3.98;3.05;;;;;;;8.90;45.21;100245.03;1739849;81;21049;-61
2021/12/22 11:15:49;;;;;;;4.15;3.30;;;;;;;8.91;45.13;100242.24;1766550;81;21544;-60
2021/12/22 11:18:34;;;;;;;3.90;2.90;;;;;;;8.92;45.05;100241.24;1769497;81;21097;-62
2021/12/22 11:21:22;;;;;;;3.95;3.35;;;;;;;8.93;44.96;100236.80;1751467;81;21060;-60
2021/12/22 11:23:46;;;;;;;3.92;2.98;;;;;;;8.91;44.88;100230.31;1738677;81;21140;-62
2021/12/22 11:26:12;;;;;;;3.60;3.17;;;;;;;8.89;44.82;100230.95;1741331;81;21048;-61
2021/12/22 11:28:39;;;;;;;4.25;3.40;;;;;;;8.87;44.75;100228.94;1741364;81;21068;-62
2021/12/22 11:31:07;;;;;;;3.27;2.72;;;;;;;8.85;44.69;100229.58;1742410;81;21140;-65
2021/12/22 11:33:34;;;;;;;4.05;3.20;;;;;;;8.84;44.63;100235.34;1752321;79;21044;-60
2021/12/22 11:36:01;;;;;;;3.95;3.00;;;;;;;8.82;44.57;100231.18;1744413;81;21092;-60
2021/12/22 11:38:29;;;;;;;4.60;3.40;;;;;;;8.80;44.51;100227.84;1742413;81;21033;-60
2021/12/22 11:41:06;;;;;;;3.70;3.30;;;;;;;8.79;44.44;100238.11;1763205;81;21050;-60
2021/12/22 11:43:24;;;;;;;5.00;3.50;;;;;;;8.76;44.36;100233.09;1749120;81;21435;-61
2021/12/22 11:45:51;;;;;;;5.33;3.47;;;;;;;8.63;44.26;100220.15;1750130;81;21082;-59
2021/12/22 11:48:18;;;;;;;4.17;3.02;;;;;;;8.71;44.20;100240.16;1750040;81;21135;-60
2021/12/22 11:50:47;;;;;;;3.62;3.00;;;;;;;8.68;44.12;100240.43;1741952;81;21104;-60
2021/12/22 11:53:15;;;;;;;3.60;3.12;;;;;;;8.67;44.07;100241.39;1751736;81;21200;-60
2021/12/22 11:55:48;;;;;;;3.58;3.12;;;;;;;8.64;44.01;100239.05;1754446;81;21517;-62